Time;durP1;ratioP1;P1;durP2;ratioP2;P2;SDS_P1;SDS_P2;PMS_P1;PMS_P2;Temp;Humidity;BMP_temperature;BMP_pressure;BME280_temperature;BME280_humidity;BME280_pressure;Samples;Min_cycle;Max_cycle;Signal;HPM_P1;HPM_P2
2024/04/05 00:01:20;;;;;;;;;;;;;;;8.44;100.00;98706.84;4945506;28;19930;-71
2024/04/05 00:03:46;;;;;;;;;;;;;;;8.42;100.00;98719.59;4942727;28;19931;-72
2024/04/05 00:06:12;;;;;;;;;;;;;;;8.42;100.00;98746.41;4945024;28;19930;-73
2024/04/05 00:08:39;;;;;;;;;;;;;;;8.44;100.00;98779.22;4929069;28;19937;-73
2024/04/05 00:11:05;;;;;;;;;;;;;;;8.49;100.00;98802.78;4942188;28;19930;-73
2024/04/05 00:13:32;;;;;;;;;;;;;;;8.50;100.00;98834.75;4961057;28;19933;-72
2024/04/05 00:16:01;;;;;;;;;;;;;;;8.51;100.00;98844.47;4942305;28;19930;-72
2024/04/05 00:18:33;;;;;;;;;;;;;;;8.52;100.00;98864.91;4943473;28;20155;-72
2024/04/05 00:21:00;;;;;;;;;;;;;;;8.51;100.00;98868.59;4943280;28;19930;-71
2024/04/05 00:23:27;;;;;;;;;;;;;;;8.50;100.00;98887.53;4942037;28;19972;-72
2024/04/05 00:26:00;;;;;;;;;;;;;;;8.53;100.00;98909.47;4939198;28;20086;-72
2024/04/05 00:28:27;;;;;;;;;;;;;;;8.54;100.00;98913.81;4944127;28;19937;-70
2024/04/05 00:30:53;;;;;;;;;;;;;;;8.55;100.00;98923.50;4942786;28;19930;-71
2024/04/05 00:33:20;;;;;;;;;;;;;;;8.56;100.00;98933.22;4939426;28;20161;-72
2024/04/05 00:35:49;;;;;;;;;;;;;;;8.57;100.00;98926.00;4924609;28;20299;-71
2024/04/05 00:38:15;;;;;;;;;;;;;;;8.59;100.00;98943.59;4940584;28;19930;-71
2024/04/05 00:40:41;;;;;;;;;;;;;;;8.61;100.00;98964.03;4940821;28;19965;-72
2024/04/05 00:43:07;;;;;;;;;;;;;;;8.63;100.00;98986.09;4928702;28;19937;-72
2024/04/05 00:45:34;;;;;;;;;;;;;;;8.63;100.00;99023.66;4943650;28;19996;-72
2024/04/05 00:48:01;;;;;;;;;;;;;;;8.65;100.00;99043.91;4943439;28;20790;-72
2024/04/05 00:50:30;;;;;;;;;;;;;;;8.66;100.00;99077.78;4941778;28;19930;-72
2024/04/05 00:52:58;;;;;;;;;;;;;;;8.66;100.00;99104.59;4941715;28;20831;-72
2024/04/05 00:55:26;;;;;;;;;;;;;;;8.70;100.00;99129.19;4943524;28;19941;-72
2024/04/05 00:57:53;;;;;;;;;;;;;;;8.71;100.00;99160.34;4938473;29;19937;-72
2024/04/05 01:00:23;;;;;;;;;;;;;;;8.71;100.00;99179.13;4939266;29;19941;-72
2024/04/05 01:02:49;;;;;;;;;;;;;;;8.68;100.00;99195.59;4938098;29;19945;-71
2024/04/05 01:05:16;;;;;;;;;;;;;;;8.69;100.00;99210.69;4937139;29;19930;-72
2024/04/05 01:07:42;;;;;;;;;;;;;;;8.71;100.00;99236.28;4939388;29;19937;-70
2024/04/05 01:10:08;;;;;;;;;;;;;;;8.74;100.00;99259.25;4925087;29;19930;-72
2024/04/05 01:12:35;;;;;;;;;;;;;;;8.75;100.00;99277.88;4939564;29;19934;-71
2024/04/05 01:15:01;;;;;;;;;;;;;;;8.76;100.00;99294.78;4938888;28;19937;-72
2024/04/05 01:17:28;;;;;;;;;;;;;;;8.75;100.00;99310.06;4940241;29;19931;-71
2024/04/05 01:19:54;;;;;;;;;;;;;;;8.75;100.00;99330.66;4938232;29;20353;-72
2024/04/05 01:22:23;;;;;;;;;;;;;;;8.75;100.00;99338.72;4939616;29;20332;-72
2024/04/05 01:24:49;;;;;;;;;;;;;;;8.75;100.00;99358.34;4937436;29;20333;-72
2024/04/05 01:27:16;;;;;;;;;;;;;;;8.74;100.00;99382.63;4939121;29;20134;-72
2024/04/05 01:29:42;;;;;;;;;;;;;;;8.74;100.00;99393.38;4937570;29;19953;-72
2024/04/05 01:32:08;;;;;;;;;;;;;;;8.74;100.00;99409.47;4939138;29;20277;-72
2024/04/05 01:34:34;;;;;;;;;;;;;;;8.73;100.00;99429.25;4941396;29;20338;-72
2024/04/05 01:37:00;;;;;;;;;;;;;;;8.73;100.00;99434.59;4939458;29;19937;-71
2024/04/05 01:39:26;;;;;;;;;;;;;;;8.72;100.00;99444.50;4938763;29;19938;-71
2024/04/05 01:41:52;;;;;;;;;;;;;;;8.73;100.00;99466.78;4934658;29;19946;-72
2024/04/05 01:44:18;;;;;;;;;;;;;;;8.74;100.00;99487.25;4938877;29;19953;-72
2024/04/05 01:46:45;;;;;;;;;;;;;;;8.73;100.00;99498.97;4937643;29;19941;-72
2024/04/05 01:49:11;;;;;;;;;;;;;;;8.76;100.00;99520.13;4937932;29;20273;-72
2024/04/05 01:51:38;;;;;;;;;;;;;;;8.78;100.00;99536.84;4939530;29;20312;-72
2024/04/05 01:54:04;;;;;;;;;;;;;;;8.78;100.00;99544.91;4938926;29;20389;-72
2024/04/05 01:56:31;;;;;;;;;;;;;;;8.80;100.00;99562.50;4938362;29;19931;-71
2024/04/05 01:58:58;;;;;;;;;;;;;;;8.81;100.00;99577.59;4940850;29;20325;-70
2024/04/05 02:01:24;;;;;;;;;;;;;;;8.82;100.00;99589.19;4941302;29;19930;-71
2024/04/05 02:03:51;;;;;;;;;;;;;;;8.83;100.00;99601.59;4956705;28;20019;-70
2024/04/05 02:06:18;;;;;;;;;;;;;;;8.88;100.00;99618.00;4939565;29;20424;-71
2024/04/05 02:08:44;;;;;;;;;;;;;;;8.89;100.00;99638.47;4941536;28;20281;-70
2024/04/05 02:11:10;;;;;;;;;;;;;;;8.90;100.00;99658.94;4944174;28;19930;-71
2024/04/05 02:13:37;;;;;;;;;;;;;;;8.88;100.00;99663.63;4943864;29;19930;-72
2024/04/05 02:16:03;;;;;;;;;;;;;;;8.89;100.00;99684.09;4925246;29;19937;-71
2024/04/05 02:18:29;;;;;;;;;;;;;;;8.89;100.00;99702.88;4944232;29;20582;-71
2024/04/05 02:20:56;;;;;;;;;;;;;;;8.91;100.00;99723.16;4925079;29;19941;-71
2024/04/05 02:23:22;;;;;;;;;;;;;;;8.92;100.00;99745.44;4942837;29;19937;-72
2024/04/05 02:25:51;;;;;;;;;;;;;;;8.91;100.00;99754.53;4941513;29;19931;-71
2024/04/05 02:28:17;;;;;;;;;;;;;;;8.90;100.00;99775.16;4944074;29;20293;-71
2024/04/05 02:30:43;;;;;;;;;;;;;;;8.89;100.00;99776.16;4926662;29;19953;-71
2024/04/05 02:33:12;;;;;;;;;;;;;;;8.89;100.00;99788.72;4942937;29;20336;-72
2024/04/05 02:35:38;;;;;;;;;;;;;;;8.89;100.00;99797.63;4927487;29;19937;-71
2024/04/05 02:38:05;;;;;;;;;;;;;;;8.91;100.00;99808.19;4927231;29;19937;-73
2024/04/05 02:40:31;;;;;;;;;;;;;;;8.90;100.00;99819.94;4957080;28;19957;-72
2024/04/05 02:42:58;;;;;;;;;;;;;;;8.92;100.00;99828.63;4943928;28;20381;-73
2024/04/05 02:45:24;;;;;;;;;;;;;;;8.93;100.00;99833.00;4943182;29;19930;-72
2024/04/05 02:47:50;;;;;;;;;;;;;;;8.94;100.00;99845.41;4943637;29;19937;-72
2024/04/05 02:50:16;;;;;;;;;;;;;;;8.94;100.00;99857.00;4940760;29;19931;-72
2024/04/05 02:52:43;;;;;;;;;;;;;;;8.94;100.00;99866.88;4941306;29;19930;-71
2024/04/05 02:58:08;;;;;;;;;;;;;;;8.93;100.00;99874.09;4935280;28;19930;-75
2024/04/05 03:00:36;;;;;;;;;;;;;;;8.94;100.00;99888.34;4920320;29;20424;-74
2024/04/05 03:03:02;;;;;;;;;;;;;;;8.93;100.00;99870.56;4927299;29;19954;-75
2024/04/05 03:05:28;;;;;;;;;;;;;;;8.93;100.00;99875.94;4917869;29;19931;-72
2024/04/05 03:07:54;;;;;;;;;;;;;;;8.94;100.00;99901.78;4920497;29;19930;-71
2024/04/05 03:10:20;;;;;;;;;;;;;;;8.89;100.00;99906.78;4918832;29;20389;-75
2024/04/05 03:12:46;;;;;;;;;;;;;;;8.92;100.00;99933.28;4904993;29;19931;-75
2024/04/05 03:15:13;;;;;;;;;;;;;;;8.90;100.00;99946.91;4903775;29;20502;-74
2024/04/05 03:17:39;;;;;;;;;;;;;;;8.91;100.00;99966.53;4917858;29;19953;-74
2024/04/05 03:20:06;;;;;;;;;;;;;;;8.91;100.00;99988.00;4919490;29;20801;-74
2024/04/05 03:22:32;;;;;;;;;;;;;;;8.91;100.00;100001.41;4936085;29;19953;-74
2024/04/05 03:24:58;;;;;;;;;;;;;;;8.91;100.00;100022.88;4919052;29;19942;-74
2024/04/05 03:27:24;;;;;;;;;;;;;;;8.91;100.00;100038.97;4916511;29;19931;-73
2024/04/05 03:29:51;;;;;;;;;;;;;;;8.93;100.00;100071.84;4919478;29;19942;-74
2024/04/05 03:32:17;;;;;;;;;;;;;;;8.93;100.00;100096.84;4919971;29;19930;-73
2024/04/05 03:34:45;;;;;;;;;;;;;;;8.94;100.00;100108.41;4919288;29;19930;-74
2024/04/05 03:37:12;;;;;;;;;;;;;;;8.94;100.00;100129.88;4902579;29;20301;-74
2024/04/05 03:39:38;;;;;;;;;;;;;;;8.94;100.00;100140.63;4918104;29;19930;-75
2024/04/05 03:42:04;;;;;;;;;;;;;;;8.96;100.00;100160.09;4919833;29;19931;-73
2024/04/05 03:44:31;;;;;;;;;;;;;;;8.95;100.00;100169.16;4932581;29;19931;-74
2024/04/05 03:46:57;;;;;;;;;;;;;;;8.95;100.00;100190.63;4920500;29;19931;-75
2024/04/05 03:49:25;;;;;;;;;;;;;;;8.96;100.00;100208.41;4918559;29;19930;-73
2024/04/05 03:51:51;;;;;;;;;;;;;;;8.97;100.00;100228.88;4919093;29;19937;-73
2024/04/05 03:54:17;;;;;;;;;;;;;;;8.97;100.00;100255.72;4919359;29;19938;-74
2024/04/05 03:56:44;;;;;;;;;;;;;;;8.98;100.00;100273.53;4917706;29;20529;-74
2024/04/05 03:59:10;;;;;;;;;;;;;;;8.99;100.00;100304.69;4944233;28;19937;-74
2024/04/05 04:01:36;;;;;;;;;;;;;;;8.98;100.00;100313.78;4915982;29;19942;-74
2024/04/05 04:04:03;;;;;;;;;;;;;;;8.99;100.00;100339.59;4948955;28;19931;-74
2024/04/05 04:06:29;;;;;;;;;;;;;;;8.99;100.00;100355.69;4915557;29;19955;-74
2024/04/05 04:08:55;;;;;;;;;;;;;;;8.99;100.00;100388.75;4946201;28;19931;-74
2024/04/05 04:11:22;;;;;;;;;;;;;;;9.00;100.00;100413.75;4932996;29;19930;-73
2024/04/05 04:13:48;;;;;;;;;;;;;;;9.01;100.00;100436.94;4915179;29;19931;-75
2024/04/05 04:16:16;;;;;;;;;;;;;;;9.02;100.00;100470.84;4932525;29;19937;-74
2024/04/05 04:18:46;;;;;;;;;;;;;;;9.04;100.00;100494.84;4913815;29;19986;-74
2024/04/05 04:21:12;;;;;;;;;;;;;;;9.03;100.00;100512.78;4913504;29;19937;-74
2024/04/05 04:23:39;;;;;;;;;;;;;;;9.03;100.00;100546.84;4915710;29;20377;-75
2024/04/05 04:26:05;;;;;;;;;;;;;;;9.06;100.00;100579.59;4915942;29;19990;-74
2024/04/05 04:28:32;;;;;;;;;;;;;;;9.06;100.00;100611.81;4915169;29;19931;-73
2024/04/05 04:31:15;;;;;;;;;;;;;;;9.06;100.00;100645.88;4915281;29;20187;-73
2024/04/05 04:33:41;;;;;;;;;;;;;;;9.06;100.00;100668.19;4914740;29;19930;-75
2024/04/05 04:36:07;;;;;;;;;;;;;;;9.05;100.00;100717.50;4913595;29;19935;-75
2024/04/05 04:38:33;;;;;;;;;;;;;;;9.07;100.00;100754.94;4947444;28;19938;-73
2024/04/05 04:40:59;;;;;;;;;;;;;;;9.06;100.00;100777.44;4946803;28;20441;-74
2024/04/05 04:43:26;;;;;;;;;;;;;;;9.03;100.00;100816.13;4915345;29;19931;-72
2024/04/05 04:45:53;;;;;;;;;;;;;;;9.08;100.00;100861.34;4914373;29;19930;-72
2024/04/05 04:48:19;;;;;;;;;;;;;;;9.09;100.00;100890.75;4916957;29;19938;-72
2024/04/05 04:50:46;;;;;;;;;;;;;;;9.08;100.00;100890.88;4913331;29;19930;-74
2024/04/05 04:53:12;;;;;;;;;;;;;;;9.08;100.00;100915.88;4915871;29;19930;-72
2024/04/05 04:55:41;;;;;;;;;;;;;;;9.11;100.00;100904.03;4947484;28;19938;-74
2024/04/05 04:58:07;;;;;;;;;;;;;;;9.09;100.00;100904.16;4950250;28;19941;-74
2024/04/05 05:00:33;;;;;;;;;;;;;;;9.10;100.00;100908.56;4913985;29;19931;-74
2024/04/05 05:02:59;;;;;;;;;;;;;;;9.09;100.00;100901.47;4916620;29;20373;-74
2024/04/05 05:05:25;;;;;;;;;;;;;;;9.12;100.00;100911.94;4917424;29;20288;-74
2024/04/05 05:07:51;;;;;;;;;;;;;;;9.13;100.00;100912.81;4919225;29;19942;-73
2024/04/05 05:10:19;;;;;;;;;;;;;;;9.14;100.00;100923.38;4919093;29;19930;-71
2024/04/05 05:12:45;;;;;;;;;;;;;;;9.13;100.00;100937.78;4917281;29;20369;-72
2024/04/05 05:15:11;;;;;;;;;;;;;;;9.13;100.00;100956.59;4919008;29;19938;-72
2024/04/05 05:17:37;;;;;;;;;;;;;;;9.18;100.00;100980.34;4917595;29;19946;-72
2024/04/05 05:20:07;;;;;;;;;;;;;;;9.17;100.00;101000.97;4919786;29;20316;-72
2024/04/05 05:22:33;;;;;;;;;;;;;;;9.17;100.00;101022.47;4916063;29;19931;-72
2024/04/05 05:24:59;;;;;;;;;;;;;;;9.19;100.00;101050.03;4917342;29;19930;-71
2024/04/05 05:27:25;;;;;;;;;;;;;;;9.21;100.00;101079.41;4950119;28;19931;-74
2024/04/05 05:29:51;;;;;;;;;;;;;;;9.22;100.00;101106.16;4918733;29;19930;-72
2024/04/05 05:32:17;;;;;;;;;;;;;;;9.22;100.00;101122.25;4916174;29;19930;-71
2024/04/05 05:34:44;;;;;;;;;;;;;;;9.25;100.00;101164.97;4916971;29;19950;-72
2024/04/05 05:37:10;;;;;;;;;;;;;;;9.29;100.00;101192.41;4917371;29;20049;-72
2024/04/05 05:39:36;;;;;;;;;;;;;;;9.30;100.00;101224.50;4917926;29;19930;-74
2024/04/05 05:42:02;;;;;;;;;;;;;;;9.32;100.00;101246.72;4916735;29;19954;-76
2024/04/05 05:44:28;;;;;;;;;;;;;;;9.34;100.00;101290.44;4917682;28;19937;-76
2024/04/05 05:46:55;;;;;;;;;;;;;;;9.33;100.00;101318.28;4920765;29;20376;-74
2024/04/05 05:49:21;;;;;;;;;;;;;;;9.36;100.00;101350.22;4921010;29;19938;-74
2024/04/05 05:51:47;;;;;;;;;;;;;;;9.37;100.00;101389.53;4920711;29;20439;-75
2024/04/05 05:54:13;;;;;;;;;;;;;;;9.40;100.00;101415.31;4950613;28;19930;-75
2024/04/05 05:56:39;;;;;;;;;;;;;;;9.41;100.00;101443.03;4921477;29;19931;-72
2024/04/05 05:59:05;;;;;;;;;;;;;;;9.42;100.00;101460.88;4919383;29;19930;-73
2024/04/05 06:01:32;;;;;;;;;;;;;;;9.40;100.00;101492.38;4921978;29;19930;-72
2024/04/05 06:04:00;;;;;;;;;;;;;;;9.42;100.00;101528.88;4951017;28;19938;-73
2024/04/05 06:06:27;;;;;;;;;;;;;;;9.43;100.00;101554.75;4920048;29;20515;-75
2024/04/05 06:08:53;;;;;;;;;;;;;;;9.44;100.00;101569.88;4920632;29;20404;-75
2024/04/05 06:11:19;;;;;;;;;;;;;;;9.43;100.00;101586.13;4921001;29;19930;-74
2024/04/05 06:13:45;;;;;;;;;;;;;;;9.45;100.00;101621.78;4920618;29;19930;-74
2024/04/05 06:16:12;;;;;;;;;;;;;;;9.47;100.00;101666.38;4919586;29;19937;-75
2024/04/05 06:18:40;;;;;;;;;;;;;;;9.52;100.00;101711.69;4920021;29;19931;-75
2024/04/05 06:21:06;;;;;;;;;;;;;;;9.54;100.00;101739.31;4920522;29;20422;-72
2024/04/05 06:23:32;;;;;;;;;;;;;;;9.57;100.00;101771.31;4918469;29;19931;-73
2024/04/05 06:25:59;;;;;;;;;;;;;;;9.58;100.00;101806.13;4919274;29;19934;-74
2024/04/05 06:28:25;;;;;;;;;;;;;;;9.59;100.00;101840.06;4920158;29;20411;-73
2024/04/05 06:30:52;;;;;;;;;;;;;;;9.64;100.00;101890.81;4937223;29;19937;-72
2024/04/05 06:33:18;;;;;;;;;;;;;;;9.66;100.00;101923.78;4920154;29;19934;-74
2024/04/05 06:35:45;;;;;;;;;;;;;;;9.68;100.00;101964.84;4919939;29;20170;-72
2024/04/05 06:38:11;;;;;;;;;;;;;;;9.73;100.00;102008.34;4918586;29;19931;-72
2024/04/05 06:40:39;;;;;;;;;;;;;;;9.79;100.00;102050.91;4918897;29;20412;-72
2024/04/05 06:43:06;;;;;;;;;;;;;;;9.84;100.00;102090.91;4938025;28;19931;-73
2024/04/05 06:45:32;;;;;;;;;;;;;;;9.90;100.00;102149.59;4918982;28;19934;-71
2024/04/05 06:47:59;;;;;;;;;;;;;;;10.01;100.00;102206.13;4919175;29;19942;-72
2024/04/05 06:50:29;;;;;;;;;;;;;;;10.08;100.00;102263.91;4920708;28;19930;-72
2024/04/05 06:52:59;;;;;;;;;;;;;;;10.21;100.00;102331.16;4911872;29;20604;-73
2024/04/05 06:55:26;;;;;;;;;;;;;;;10.44;100.00;102432.63;4920216;29;19945;-70
2024/04/05 06:57:52;;;;;;;;;;;;;;;10.61;100.00;102518.41;4919667;29;20328;-72
2024/04/05 07:00:21;;;;;;;;;;;;;;;11.10;100.00;102636.13;4920461;29;19937;-72
2024/04/05 07:02:47;;;;;;;;;;;;;;;11.26;100.00;102650.19;4920054;29;19942;-72
2024/04/05 07:05:14;;;;;;;;;;;;;;;11.16;100.00;102654.53;4935652;29;19930;-73
2024/04/05 07:07:40;;;;;;;;;;;;;;;11.32;100.00;102744.13;4919600;29;19930;-74
2024/04/05 07:10:07;;;;;;;;;;;;;;;11.23;100.00;102725.91;4920157;29;19931;-75
2024/04/05 07:12:33;;;;;;;;;;;;;;;11.21;100.00;102744.00;4920617;29;20337;-74
2024/04/05 07:14:59;;;;;;;;;;;;;;;11.25;100.00;102777.88;4920916;29;20510;-74
2024/04/05 07:17:26;;;;;;;;;;;;;;;11.17;100.00;102774.84;4918862;29;19934;-74
2024/04/05 07:19:52;;;;;;;;;;;;;;;11.08;100.00;102748.53;4919402;29;19930;-73
2024/04/05 07:22:19;;;;;;;;;;;;;;;11.17;100.00;102791.88;4919001;29;20588;-75
2024/04/05 07:24:48;;;;;;;;;;;;;;;11.18;100.00;102800.81;4919460;29;19938;-75
2024/04/05 07:27:17;;;;;;;;;;;;;;;11.21;100.00;102803.31;4903797;29;19938;-75
2024/04/05 07:29:43;;;;;;;;;;;;;;;11.16;100.00;102794.69;4919146;29;19931;-72
2024/04/05 07:32:09;;;;;;;;;;;;;;;11.21;100.00;102819.47;4918907;29;19931;-73
2024/04/05 07:34:36;;;;;;;;;;;;;;;11.32;100.00;102855.47;4919912;29;19930;-73
2024/04/05 07:37:02;;;;;;;;;;;;;;;11.41;100.00;102890.88;4952325;28;19937;-73
2024/04/05 07:39:29;;;;;;;;;;;;;;;11.62;100.00;102949.59;4918968;29;19956;-73
2024/04/05 07:41:55;;;;;;;;;;;;;;;11.86;100.00;102997.47;4918888;29;19931;-75
2024/04/05 07:44:21;;;;;;;;;;;;;;;11.96;100.00;102979.66;4918272;29;19942;-73
2024/04/05 07:46:47;;;;;;;;;;;;;;;12.07;100.00;102944.69;4919810;29;20457;-73
2024/04/05 07:49:13;;;;;;;;;;;;;;;12.17;100.00;102889.06;4917840;29;19938;-75
2024/04/05 07:51:39;;;;;;;;;;;;;;;12.19;100.00;102771.06;4917449;29;19930;-75
2024/04/05 07:54:06;;;;;;;;;;;;;;;12.42;100.00;102729.66;4919005;29;19934;-74
2024/04/05 07:56:32;;;;;;;;;;;;;;;12.74;100.00;102718.25;4919657;29;20374;-75
2024/04/05 07:58:58;;;;;;;;;;;;;;;12.84;100.00;102621.97;4915969;29;20056;-75
2024/04/05 08:01:24;;;;;;;;;;;;;;;13.00;100.00;102492.75;4951809;28;19957;-74
2024/04/05 08:03:53;;;;;;;;;;;;;;;13.21;100.00;102404.50;4918649;29;21265;-75
2024/04/05 08:06:19;;;;;;;;;;;;;;;13.23;100.00;102240.28;4919938;29;20284;-74
2024/04/05 08:08:45;;;;;;;;;;;;;;;13.19;100.00;101978.47;4950644;28;19937;-73
2024/04/05 08:11:12;;;;;;;;;;;;;;;13.28;100.00;101765.88;4925387;29;20476;-73
2024/04/05 08:13:38;;;;;;;;;;;;;;;13.50;100.00;101608.69;4917839;29;19935;-74
2024/04/05 08:16:07;;;;;;;;;;;;;;;13.48;100.00;101384.38;4917933;29;19937;-73
2024/04/05 08:18:33;;;;;;;;;;;;;;;13.61;100.00;101189.25;4918691;29;19938;-75
2024/04/05 08:21:04;;;;;;;;;;;;;;;13.90;100.00;101065.25;4917380;29;20438;-76
2024/04/05 08:23:31;;;;;;;;;;;;;;;13.85;100.00;100842.22;4919338;29;20179;-75
2024/04/05 08:25:57;;;;;;;;;;;;;;;13.87;100.00;100659.78;4919348;29;19938;-76
2024/04/05 08:28:23;;;;;;;;;;;;;;;14.04;100.00;100520.66;4918773;29;19937;-77
2024/04/05 08:30:53;;;;;;;;;;;;;;;14.22;100.00;100384.16;4918200;29;19931;-73
2024/04/05 08:33:20;;;;;;;;;;;;;;;14.30;100.00;100240.63;4917207;29;19930;-74
2024/04/05 08:35:52;;;;;;;;;;;;;;;14.32;100.00;100095.06;4950345;28;20045;-74
2024/04/05 08:38:18;;;;;;;;;;;;;;;14.49;100.00;99988.22;4919669;28;19938;-75
2024/04/05 08:42:14;;;;;;;;;;;;;;;14.26;100.00;99828.75;4963480;22;20395;-73
2024/04/05 08:44:43;;;;;;;;;;;;;;;14.45;100.00;99737.91;5066353;28;20291;-73
2024/04/05 08:47:09;;;;;;;;;;;;;;;14.57;100.00;99684.81;5067205;28;19940;-73
2024/04/05 08:49:36;;;;;;;;;;;;;;;14.84;100.00;99617.13;5041239;28;19932;-73
2024/04/05 08:52:03;;;;;;;;;;;;;;;14.92;100.00;99474.19;5068581;28;19983;-73
2024/04/05 08:54:29;;;;;;;;;;;;;;;14.96;100.00;99361.66;5067057;28;19939;-73
2024/04/05 08:56:56;;;;;;;;;;;;;;;15.06;100.00;99223.81;5067501;28;19928;-73
2024/04/05 08:59:23;;;;;;;;;;;;;;;14.95;100.00;99077.41;5067037;28;20386;-73
2024/04/05 09:01:51;;;;;;;;;;;;;;;15.00;100.00;99010.69;5065168;28;19929;-73
2024/04/05 09:04:17;;;;;;;;;;;;;;;15.06;100.00;98922.25;5066555;28;19935;-72
2024/04/05 09:06:44;;;;;;;;;;;;;;;15.05;100.00;98869.16;5066065;28;19928;-74
2024/04/05 09:09:10;;;;;;;;;;;;;;;14.89;100.00;98743.28;5066871;28;20294;-74
2024/04/05 09:11:37;;;;;;;;;;;;;;;14.94;100.00;98589.00;5065276;28;19928;-74
2024/04/05 09:14:03;;;;;;;;;;;;;;;15.19;100.00;98445.22;5065230;28;19932;-74
2024/04/05 09:16:31;;;;;;;;;;;;;;;15.47;100.00;98287.22;5066244;28;19929;-73
2024/04/05 09:19:08;;;;;;;;;;;;;;;15.77;100.00;98124.25;5063913;28;19939;-75
2024/04/05 09:21:41;;;;;;;;;;;;;;;15.89;100.00;97900.63;5066451;28;19935;-74
2024/04/05 09:24:08;;;;;;;;;;;;;;;15.88;100.00;97635.09;5066444;28;19995;-74
2024/04/05 09:26:34;;;;;;;;;;;;;;;15.85;100.00;97356.31;5066025;28;20350;-74
2024/04/05 09:29:01;;;;;;;;;;;;;;;15.72;100.00;96959.13;5066017;28;19935;-74
2024/04/05 09:31:28;;;;;;;;;;;;;;;15.80;100.00;96521.25;5063699;28;19928;-74
2024/04/05 09:34:05;;;;;;;;;;;;;;;15.94;100.00;96165.06;5047429;28;19929;-73
2024/04/05 09:36:32;;;;;;;;;;;;;;;16.09;100.00;95927.25;5073879;28;19936;-73
2024/04/05 09:39:00;;;;;;;;;;;;;;;16.32;100.00;96230.03;5066058;28;20328;-73
2024/04/05 09:41:27;;;;;;;;;;;;;;;16.22;100.00;96268.19;5065982;28;19928;-73
2024/04/05 09:43:53;;;;;;;;;;;;;;;16.34;100.00;96253.06;5064377;28;19928;-72
2024/04/05 09:46:20;;;;;;;;;;;;;;;16.46;100.00;96213.75;5065529;28;19939;-73
2024/04/05 09:48:46;;;;;;;;;;;;;;;16.46;100.00;96132.38;5064332;28;19928;-73
2024/04/05 09:51:13;;;;;;;;;;;;;;;16.36;100.00;96063.63;5063846;28;19934;-72
2024/04/05 09:53:45;;;;;;;;;;;;;;;16.43;100.00;95984.56;5051912;28;19929;-72
2024/04/05 09:56:15;;;;;;;;;;;;;;;16.37;100.00;95920.63;5052757;28;19936;-72
2024/04/05 09:58:42;;;;;;;;;;;;;;;16.54;100.00;95876.56;5035239;28;19928;-73
2024/04/05 10:01:08;;;;;;;;;;;;;;;16.40;100.00;95835.13;5051284;28;19929;-73
2024/04/05 10:03:35;;;;;;;;;;;;;;;16.56;100.00;95811.94;5069443;28;19928;-73
2024/04/05 10:06:11;;;;;;;;;;;;;;;16.55;100.00;95765.00;5051547;28;19936;-73
2024/04/05 10:08:39;;;;;;;;;;;;;;;16.73;100.00;95741.47;5050948;28;20339;-73
2024/04/05 10:11:12;;;;;;;;;;;;;;;16.78;100.00;95716.91;5050012;28;19928;-73
2024/04/05 10:13:38;;;;;;;;;;;;;;;16.78;100.00;95700.63;5053109;28;19936;-73
2024/04/05 10:16:05;;;;;;;;;;;;;;;16.74;100.00;95686.06;5051925;28;19928;-73
2024/04/05 10:18:38;;;;;;;;;;;;;;;16.78;100.00;95657.19;5052956;28;19929;-72
2024/04/05 10:21:08;;;;;;;;;;;;;;;16.90;100.00;95640.28;5050448;28;19936;-72
2024/04/05 10:23:40;;;;;;;;;;;;;;;17.12;100.00;95649.09;5034944;28;19928;-72
2024/04/05 10:26:13;;;;;;;;;;;;;;;17.34;100.00;95648.16;5052041;28;19941;-73
2024/04/05 10:28:39;;;;;;;;;;;;;;;17.32;100.00;95644.94;5051643;28;19933;-73
2024/04/05 10:31:06;;;;;;;;;;;;;;;17.19;100.00;95620.66;5051328;28;20353;-72
2024/04/05 10:33:32;;;;;;;;;;;;;;;17.31;100.00;95631.69;5051326;28;19935;-73
2024/04/05 10:35:59;;;;;;;;;;;;;;;17.13;100.00;95614.59;5050587;28;19935;-73
2024/04/05 10:38:29;;;;;;;;;;;;;;;17.27;100.00;95609.78;5051756;28;19928;-73
2024/04/05 10:40:57;;;;;;;;;;;;;;;17.31;100.00;95613.47;5051726;28;20362;-72
2024/04/05 10:43:23;;;;;;;;;;;;;;;17.46;100.00;95601.28;5051983;28;19928;-73
2024/04/05 10:45:53;;;;;;;;;;;;;;;17.56;100.00;95597.44;5051982;28;19950;-73
2024/04/05 10:48:21;;;;;;;;;;;;;;;17.47;100.00;95594.75;5044456;28;20523;-72
2024/04/05 10:50:48;;;;;;;;;;;;;;;17.58;100.00;95570.75;5051630;28;19928;-73
2024/04/05 10:53:16;;;;;;;;;;;;;;;17.66;100.00;95564.53;5051813;28;19936;-72
2024/04/05 10:55:43;;;;;;;;;;;;;;;17.56;100.00;95546.63;5047890;28;19928;-73
2024/04/05 10:58:13;;;;;;;;;;;;;;;17.73;100.00;95562.13;5051154;28;19933;-73
2024/04/05 11:00:40;;;;;;;;;;;;;;;17.59;100.00;95548.69;5049621;28;20302;-72
2024/04/05 11:03:10;;;;;;;;;;;;;;;17.82;100.00;95558.25;5049501;28;20442;-73
2024/04/05 11:05:36;;;;;;;;;;;;;;;17.71;100.00;95548.84;5051248;28;19936;-73
2024/04/05 11:08:03;;;;;;;;;;;;;;;17.61;100.00;95535.59;5051123;28;19939;-74
2024/04/05 11:10:34;;;;;;;;;;;;;;;17.73;100.00;95522.16;5050574;28;19932;-73
2024/04/05 11:13:01;;;;;;;;;;;;;;;17.77;100.00;95519.56;5033212;28;20527;-73
2024/04/05 11:15:27;;;;;;;;;;;;;;;17.90;100.00;95523.97;5051314;28;19935;-73
2024/04/05 11:18:05;;;;;;;;;;;;;;;18.20;100.00;95541.13;5051246;28;19929;-73
2024/04/05 11:20:32;;;;;;;;;;;;;;;18.39;100.00;95544.25;5052299;28;20405;-72
2024/04/05 11:23:02;;;;;;;;;;;;;;;18.27;100.00;95544.13;5050112;28;19935;-74
2024/04/05 11:25:29;;;;;;;;;;;;;;;18.61;100.00;95535.81;5051626;28;19928;-72
2024/04/05 11:27:55;;;;;;;;;;;;;;;18.49;100.00;95541.13;5048879;28;19929;-72
2024/04/05 11:30:22;;;;;;;;;;;;;;;18.21;100.00;95534.56;5050170;28;19929;-73
2024/04/05 11:32:48;;;;;;;;;;;;;;;18.53;100.00;95530.38;5050069;28;19929;-73
2024/04/05 11:35:14;;;;;;;;;;;;;;;18.38;100.00;95534.47;5048347;28;19928;-73
2024/04/05 11:37:45;;;;;;;;;;;;;;;18.51;100.00;95527.19;5049593;28;20553;-73
2024/04/05 11:40:12;;;;;;;;;;;;;;;18.63;100.00;95513.69;5049863;28;20556;-74
2024/04/05 11:42:39;;;;;;;;;;;;;;;18.52;100.00;95493.41;5050276;28;19936;-74
2024/04/05 11:45:05;;;;;;;;;;;;;;;18.41;100.00;95498.44;5049024;28;19928;-73
2024/04/05 11:47:32;;;;;;;;;;;;;;;18.41;100.00;95484.03;5051490;28;20597;-73
2024/04/05 11:49:58;;;;;;;;;;;;;;;18.55;100.00;95473.69;5034383;28;19933;-72
2024/04/05 11:52:24;;;;;;;;;;;;;;;18.79;100.00;95473.03;5049872;28;19936;-70
2024/04/05 11:54:51;;;;;;;;;;;;;;;18.67;100.00;95482.75;5050431;28;19936;-72
2024/04/05 11:57:17;;;;;;;;;;;;;;;18.77;100.00;95473.41;5051258;28;20426;-71
2024/04/05 11:59:43;;;;;;;;;;;;;;;18.70;100.00;95467.69;5049070;28;19936;-72
2024/04/05 12:02:09;;;;;;;;;;;;;;;18.63;100.00;95457.31;5048979;28;20379;-71
2024/04/05 12:04:36;;;;;;;;;;;;;;;18.50;100.00;95449.38;5034040;28;19929;-75
2024/04/05 12:07:03;;;;;;;;;;;;;;;18.76;100.00;95458.19;5059453;28;19935;-75
2024/04/05 12:09:29;;;;;;;;;;;;;;;18.81;100.00;95457.16;5047709;28;19928;-75
2024/04/05 12:11:55;;;;;;;;;;;;;;;18.77;100.00;95450.81;5048895;28;19951;-76
2024/04/05 12:14:22;;;;;;;;;;;;;;;19.01;100.00;95464.50;5052239;28;19928;-74
2024/04/05 12:16:48;;;;;;;;;;;;;;;19.06;100.00;95450.69;5048762;28;20382;-76
2024/04/05 12:19:14;;;;;;;;;;;;;;;19.19;100.00;95449.59;5048613;28;19924;-75
2024/04/05 12:21:40;;;;;;;;;;;;;;;19.06;100.00;95445.25;5049486;28;19936;-76
2024/04/05 12:24:07;;;;;;;;;;;;;;;19.25;100.00;95442.81;5049423;28;19928;-75
2024/04/05 12:26:33;;;;;;;;;;;;;;;19.33;100.00;95443.84;5052536;28;19929;-75
2024/04/05 12:28:59;;;;;;;;;;;;;;;19.42;100.00;95428.19;5048112;28;19935;-74
2024/04/05 12:31:25;;;;;;;;;;;;;;;19.31;100.00;95419.66;5051007;28;19935;-75
2024/04/05 12:33:52;;;;;;;;;;;;;;;19.44;100.00;95426.69;5051675;28;19951;-74
2024/04/05 12:36:18;;;;;;;;;;;;;;;19.59;100.00;95419.03;5051179;28;20299;-75
2024/04/05 12:38:46;;;;;;;;;;;;;;;19.53;100.00;95414.94;5050991;28;19929;-74
2024/04/05 12:41:13;;;;;;;;;;;;;;;19.26;100.00;95428.06;5050447;28;19951;-73